Latest Weather Observations for Lake Grace

IDW60801

Issued at 9:32 pm WST Sunday 24 May 2015 (issued every 30 minutes, with the page automatically refreshed every 10 minutes)

About weather observations | Map of weather stations | Latest weather observations for WA | Other Formats
Station Details ID: 010911 Name: LAKE GRACE Lat: -33.10 Lon: 118.46 Height: 286.0 m
Data from the previous 72 hours. | See also: Recent months at Lake Grace
Date/Time
WST
Temp
°C
App
Temp
°C
Dew
Point
Rel
Hum
%
Delta-T
°C
Wind Press
QNH
hPa
Press
MSL
hPa
Rain
since 9 am
mm
Dir
 
Spd
km/h
Gust
km/h
Spd
kts
Gust
kts
24/09:30pm 11.2 9.3 7.5 78 1.8 SE 7 9 4 5 1022.7 1022.4 0.0
24/09:00pm 11.4 9.7 7.7 78 1.8 SE 6 7 3 4 1022.5 1022.2 0.0
24/08:30pm 11.8 10.0 8.1 78 1.8 ESE 7 9 4 5 1022.4 1022.1 0.0
24/08:00pm 12.0 10.3 8.5 79 1.8 SE 7 9 4 5 1022.3 1022.0 0.0
24/07:30pm 12.5 10.9 8.2 75 2.2 SSE 6 7 3 4 1022.3 1022.0 0.0
24/07:00pm 14.0 12.6 8.8 71 2.7 S 6 9 3 5 1022.3 1022.0 0.0
24/06:30pm 14.8 14.6 9.0 68 3.0 CALM 0 0 0 0 1022.0 1021.7 0.0
24/06:00pm 15.5 15.2 8.7 64 3.5 CALM 0 0 0 0 1021.8 1021.5 0.0
24/05:30pm 16.1 15.0 8.6 61 3.9 SSE 4 6 2 3 1021.7 1021.4 0.0
24/05:00pm 16.6 15.5 8.6 59 4.1 S 4 7 2 4 1021.4 1021.1 0.0
24/04:30pm 17.0 15.4 8.2 56 4.5 SSW 6 7 3 4 1021.3 1021.0 0.0
24/04:00pm 17.1 14.9 8.0 55 4.7 SW 9 11 5 6 1021.2 1020.9 0.0
24/03:30pm 17.2 15.1 8.1 55 4.7 SSW 9 11 5 6 1021.2 1020.9 0.0
24/03:00pm 17.2 15.1 8.1 55 4.7 SW 9 15 5 8 1021.0 1020.7 0.0
24/02:30pm 17.8 15.8 8.6 55 4.8 SW 9 13 5 7 1020.9 1020.6 0.0
24/02:00pm 17.0 15.3 8.4 57 4.4 SSE 7 11 4 6 1020.9 1020.6 0.0
24/01:30pm 17.5 16.0 8.4 55 4.7 S 6 11 3 6 1021.1 1020.8 0.0
24/01:00pm 17.2 15.1 8.4 56 4.6 S 9 13 5 7 1021.4 1021.1 0.0
24/12:30pm 17.1 15.1 8.8 58 4.3 SE 9 13 5 7 1021.7 1021.4 0.0
24/12:00pm 16.6 15.1 8.3 58 4.3 SE 6 9 3 5 1022.0 1021.7 0.0
24/11:30am 16.2 14.1 8.2 59 4.1 SSE 9 15 5 8 1022.4 1022.1 0.0
24/11:00am 15.5 13.3 7.8 60 3.9 SSE 9 17 5 9 1022.8 1022.5 0.0
24/10:30am 15.3 12.9 8.5 64 3.5 SSE 11 15 6 8 1023.0 1022.7 0.0
24/10:00am 14.5 12.1 8.7 68 3.0 SSE 11 17 6 9 1023.0 1022.7 0.0
24/09:30am 13.4 11.1 9.1 75 2.2 SSE 11 17 6 9 1023.1 1022.8 0.0
24/09:00am 12.3 11.0 11.2 93 0.6 SSE 9 13 5 7 1023.0 1022.7 0.0
24/08:30am 11.1 9.9 10.3 95 0.4 S 7 9 4 5 1023.0 1022.7 0.0
24/08:00am 10.3 10.2 9.5 95 0.4 CALM 0 0 0 0 1022.8 1022.5 0.0
24/07:30am 9.2 7.7 8.4 95 0.4 SSE 6 6 3 3 1022.5 1022.2 0.0
24/07:00am 9.4 7.7 8.5 94 0.4 S 7 7 4 4 1022.3 1022.0 0.0
24/06:30am 9.5 8.0 8.6 94 0.4 S 6 7 3 4 1022.0 1021.7 0.0
24/06:00am 10.1 8.8 9.2 94 0.5 SSW 6 7 3 4 1021.8 1021.5 0.0
24/05:30am 10.8 9.6 9.7 93 0.6 S 6 9 3 5 1021.7 1021.4 0.0
24/05:00am 11.0 9.9 9.9 93 0.6 SSW 6 9 3 5 1021.5 1021.2 0.0
24/04:30am 11.5 11.6 10.2 92 0.7 CALM 0 6 0 3 1021.4 1021.1 0.0
24/04:00am 11.5 11.6 10.2 92 0.7 CALM 0 0 0 0 1021.1 1020.8 0.0
24/03:30am 11.5 11.6 10.2 92 0.7 CALM 0 0 0 0 1021.1 1020.8 0.0
24/03:00am 11.5 11.6 10.2 92 0.7 CALM 0 0 0 0 1021.0 1020.7 0.0
24/02:30am 11.7 11.5 10.6 93 0.6 WNW 2 7 1 4 1021.0 1020.7 0.0
24/02:00am 11.6 11.7 10.3 92 0.7 CALM 0 0 0 0 1020.8 1020.5 0.0
24/01:30am 11.8 10.8 10.4 91 0.7 S 6 7 3 4 1020.6 1020.3 0.0
24/01:00am 12.0 10.8 10.4 90 0.8 SSE 7 9 4 5 1020.3 1020.0 0.0
24/12:30am 12.0 10.5 10.4 90 0.8 SE 9 13 5 7 1020.3 1020.0 0.0
24/12:00am 12.1 11.2 10.5 90 0.8 SSE 6 9 3 5 1020.4 1020.1 0.0
 
Date/Time
WST
Temp
°C
App
Temp
°C
Dew
Point
Rel
Hum
%
Delta-T
°C
Wind Press
QNH
hPa
Press
MSL
hPa
Rain
since 9 am
mm
Dir
 
Spd
km/h
Gust
km/h
Spd
kts
Gust
kts
23/11:30pm 12.1 11.1 10.3 89 0.9 SW 6 7 3 4 1020.3 1020.0 0.0
23/11:00pm 12.1 11.0 10.5 90 0.8 SSE 7 9 4 5 1020.3 1020.0 0.0
23/10:30pm 11.8 10.5 10.0 89 0.9 SE 7 9 4 5 1020.1 1019.8 0.0
23/10:00pm 12.2 10.6 10.3 88 1.0 SE 9 13 5 7 1020.2 1019.9 0.0
23/09:30pm 12.5 11.3 10.2 86 1.2 SSE 7 11 4 6 1020.2 1019.9 0.0
23/09:00pm 12.7 11.2 10.4 86 1.2 SSE 9 11 5 6 1020.1 1019.8 0.0
23/08:30pm 12.6 11.0 10.3 86 1.2 S 9 13 5 7 1019.9 1019.6 0.0
23/08:00pm 12.0 12.0 9.7 86 1.2 CALM 0 0 0 0 1019.6 1019.3 0.0
23/07:30pm 12.4 12.4 9.8 84 1.3 CALM 0 0 0 0 1019.3 1019.0 0.0
23/07:00pm 13.5 13.6 10.3 81 1.7 CALM 0 0 0 0 1019.1 1018.8 0.0
23/06:30pm 14.3 14.4 10.1 76 2.2 CALM 0 0 0 0 1018.9 1018.6 0.0
23/06:00pm 14.9 14.9 9.9 72 2.6 CALM 0 6 0 3 1018.6 1018.3 0.0
23/05:30pm 16.7 15.4 10.1 65 3.5 SW 7 7 4 4 1018.3 1018.0 0.0
23/05:00pm 17.9 16.6 10.0 60 4.2 WSW 7 9 4 5 1018.1 1017.8 0.0
23/04:30pm 18.8 17.1 9.8 56 4.8 SW 9 13 5 7 1018.0 1017.7 0.0
23/04:00pm 19.2 17.0 9.4 53 5.2 WSW 11 17 6 9 1017.9 1017.6 0.0
23/03:30pm 19.5 17.2 9.1 51 5.5 SW 11 17 6 9 1017.6 1017.3 0.0
23/03:00pm 19.2 16.5 8.8 51 5.5 WSW 13 20 7 11 1017.5 1017.1 0.0
23/02:30pm 19.6 16.3 8.0 47 6.1 WSW 15 22 8 12 1017.5 1017.1 0.0
23/02:00pm 19.4 15.8 6.8 44 6.4 WSW 15 19 8 10 1017.5 1017.1 0.0
23/01:30pm 19.2 14.9 5.3 40 6.9 WSW 17 24 9 13 1017.5 1017.1 0.0
23/01:00pm 19.1 15.6 5.6 41 6.7 WSW 13 22 7 12 1017.6 1017.3 0.0
23/12:30pm 18.5 14.9 6.7 46 6.0 WSW 15 22 8 12 1017.8 1017.5 0.0
23/12:00pm 18.5 15.4 7.3 48 5.7 SW 13 20 7 11 1018.2 1017.9 0.0
23/11:30am 17.5 14.7 8.6 56 4.6 WSW 13 20 7 11 1018.5 1018.2 0.0
23/11:00am 16.8 15.0 9.5 62 3.9 WSW 9 15 5 8 1018.7 1018.4 0.0
23/10:30am 15.8 14.3 9.2 65 3.5 W 7 11 4 6 1019.0 1018.7 0.0
23/10:00am 14.6 13.1 8.3 66 3.2 NW 6 9 3 5 1019.0 1018.7 0.0
23/09:30am 13.3 11.6 8.2 71 2.6 N 7 9 4 5 1019.0 1018.7 0.0
23/09:00am 11.9 9.8 8.2 78 1.8 N 9 11 5 6 1019.0 1018.7 1.0
23/08:30am 10.3 8.1 7.7 84 1.3 N 9 9 5 5 1018.9 1018.6 1.0
23/08:00am 9.1 7.2 7.4 89 0.8 N 7 9 4 5 1018.7 1018.4 1.0
23/07:30am 7.3 5.0 5.9 91 0.6 N 7 9 4 5 1018.5 1018.2 1.0
23/07:00am 6.5 4.2 5.0 90 0.7 N 6 9 3 5 1018.3 1018.0 1.0
23/06:30am 6.3 4.0 4.8 90 0.7 N 6 7 3 4 1018.2 1017.9 1.0
23/06:00am 6.5 4.2 4.8 89 0.8 N 6 6 3 3 1018.0 1017.7 1.0
23/05:30am 6.7 4.8 4.9 88 0.8 N 4 7 2 4 1017.9 1017.6 1.0
23/05:00am 7.2 5.0 5.3 88 0.9 N 6 7 3 4 1017.7 1017.4 1.0
23/04:30am 7.2 4.9 5.0 86 1.0 NNE 6 6 3 3 1017.5 1017.1 1.0
23/04:00am 7.7 5.5 5.3 85 1.1 NNE 6 7 3 4 1017.4 1017.0 1.0
23/03:30am 9.3 6.7 6.2 81 1.5 NNE 9 11 5 6 1017.3 1016.9 1.0
23/03:00am 8.6 6.3 5.7 82 1.3 NE 7 9 4 5 1017.5 1017.1 1.0
23/02:30am 9.2 7.0 6.1 81 1.4 NE 7 9 4 5 1017.6 1017.3 1.0
23/02:00am 9.2 7.0 6.3 82 1.4 NE 7 9 4 5 1017.6 1017.3 1.0
23/01:30am 9.0 6.9 5.7 80 1.5 NNE 6 7 3 4 1017.7 1017.4 1.0
23/01:00am 9.7 7.5 5.3 74 2.0 NNE 6 7 3 4 1017.7 1017.4 1.0
23/12:30am 11.2 7.8 5.9 70 2.5 NNE 13 17 7 9 1017.8 1017.5 1.0
23/12:00am 12.0 8.3 6.1 67 2.8 NE 15 22 8 12 1017.9 1017.6 1.0
 
Date/Time
WST
Temp
°C
App
Temp
°C
Dew
Point
Rel
Hum
%
Delta-T
°C
Wind Press
QNH
hPa
Press
MSL
hPa
Rain
since 9 am
mm
Dir
 
Spd
km/h
Gust
km/h
Spd
kts
Gust
kts
22/11:30pm 12.0 7.5 6.1 67 2.8 NE 19 30 10 16 1017.9 1017.6 1.0
22/11:00pm 12.0 7.6 6.5 69 2.6 NE 19 28 10 15 1018.2 1017.9 1.0
22/10:30pm 11.6 7.3 6.9 73 2.3 ENE 19 24 10 13 1018.2 1017.9 1.0
22/10:00pm 11.7 7.8 7.0 73 2.3 ENE 17 24 9 13 1018.4 1018.1 1.0
22/09:30pm 11.9 7.6 7.0 72 2.4 ENE 19 24 10 13 1018.8 1018.5 1.0
22/09:00pm 12.1 8.2 7.2 72 2.4 ENE 17 22 9 12 1019.1 1018.8 1.0
22/08:30pm 12.6 8.7 7.3 70 2.6 ENE 17 26 9 14 1019.2 1018.9 1.0
22/08:00pm 12.6 9.2 7.5 71 2.5 E 15 20 8 11 1019.3 1019.0 1.0
22/07:30pm 13.0 9.6 7.7 70 2.6 E 15 20 8 11 1019.3 1019.0 1.0
22/07:00pm 13.1 10.2 8.0 71 2.6 ESE 13 19 7 10 1019.2 1018.9 1.0
22/06:30pm 13.0 10.4 7.9 71 2.5 ESE 11 15 6 8 1019.1 1018.8 1.0
22/06:00pm 13.1 10.9 8.0 71 2.6 ESE 9 11 5 6 1019.1 1018.8 1.0
22/05:30pm 14.1 12.0 8.1 67 3.0 ESE 9 13 5 7 1019.0 1018.7 1.0
22/05:00pm 15.1 13.3 7.9 62 3.6 ESE 7 13 4 7 1019.0 1018.7 1.0
22/04:30pm 15.9 12.9 7.9 59 4.1 E 13 17 7 9 1018.9 1018.6 1.0
22/04:00pm 16.1 12.7 7.8 58 4.2 ENE 15 19 8 10 1019.0 1018.7 1.0
22/03:30pm 16.3 12.9 7.8 57 4.3 E 15 20 8 11 1018.8 1018.5 1.0
22/03:00pm 16.4 13.1 7.9 57 4.3 ENE 15 22 8 12 1018.9 1018.6 1.0
22/02:30pm 16.2 13.2 7.7 57 4.3 ENE 13 20 7 11 1019.2 1018.9 1.0
22/02:00pm 16.0 13.3 9.0 63 3.6 E 13 20 7 11 1019.4 1019.1 1.0
22/01:30pm 15.0 12.6 8.7 66 3.2 E 11 17 6 9 1019.9 1019.6 1.0
22/01:00pm 13.2 10.7 8.3 72 2.5 E 11 15 6 8 1020.4 1020.1 1.0
22/12:30pm 12.0 9.9 8.3 78 1.9 E 9 15 5 8 1021.1 1020.8 1.0
22/12:00pm 11.1 9.4 8.3 83 1.4 ESE 7 9 4 5 1021.7 1021.4 1.0
22/11:30am 10.3 8.1 7.7 84 1.3 ESE 9 15 5 8 1022.3 1022.0 1.0
22/11:00am 10.1 7.7 7.0 81 1.5 ENE 9 13 5 7 1023.0 1022.7 1.0
22/10:30am 10.3 7.8 6.5 77 1.8 E 9 15 5 8 1023.0 1022.7 0.4
22/10:00am 9.9 7.0 6.4 79 1.6 ENE 11 15 6 8 1023.3 1023.0 0.4
22/09:30am 9.4 6.8 6.3 81 1.5 ENE 9 13 5 7 1023.4 1023.1 0.4
22/09:00am 9.6 6.3 4.8 72 2.2 ENE 11 15 6 8 1023.7 1023.5 0.0
22/08:30am 9.5 5.8 4.3 70 2.3 ENE 13 19 7 10 1023.7 1023.5 0.0
22/08:00am 9.2 5.1 4.4 72 2.1 ENE 15 20 8 11 1023.6 1023.4 0.0
22/07:30am 8.8 5.1 4.2 73 2.1 ENE 13 19 7 10 1023.5 1023.3 0.0
22/07:00am 8.7 4.9 3.9 72 2.1 ENE 13 20 7 11 1023.5 1023.3 0.0
22/06:30am 8.3 5.6 3.9 74 1.9 NE 7 13 4 7 1023.7 1023.5 0.0
22/06:00am 8.2 5.7 3.7 73 2.0 E 6 11 3 6 1023.5 1023.3 0.0
22/05:30am 8.6 5.2 3.8 72 2.1 ENE 11 17 6 9 1023.4 1023.1 0.0
22/05:00am 8.1 5.1 3.9 75 1.8 ENE 9 13 5 7 1023.5 1023.3 0.0
22/04:30am 7.5 4.8 3.7 77 1.7 E 7 9 4 5 1023.6 1023.4 0.0
22/04:00am 7.7 5.0 3.7 76 1.7 ENE 7 11 4 6 1023.7 1023.5 0.0
22/03:30am 7.7 4.6 3.7 76 1.7 ENE 9 13 5 7 1023.8 1023.6 0.0
22/03:00am 7.7 4.2 3.7 76 1.7 ENE 11 15 6 8 1024.0 1023.8 0.0
22/02:30am 7.7 6.3 3.6 75 1.8 CALM 0 2 0 1 1024.5 1024.2 0.0
22/02:00am 8.1 5.0 3.8 74 1.9 ENE 9 15 5 8 1024.4 1024.1 0.0
22/01:30am 8.5 5.1 3.9 73 2.0 ENE 11 17 6 9 1024.4 1024.1 0.0
22/01:00am 8.9 4.7 3.9 71 2.2 ENE 15 22 8 12 1024.4 1024.1 0.0
22/12:30am 9.2 5.0 4.0 70 2.3 ENE 15 20 8 11 1024.7 1024.4 0.0
22/12:00am 9.3 4.8 4.1 70 2.3 ENE 17 26 9 14 1024.5 1024.2 0.0
 
Date/Time
WST
Temp
°C
App
Temp
°C
Dew
Point
Rel
Hum
%
Delta-T
°C
Wind Press
QNH
hPa
Press
MSL
hPa
Rain
since 9 am
mm
Dir
 
Spd
km/h
Gust
km/h
Spd
kts
Gust
kts
21/11:30pm 9.1 4.6 4.3 72 2.2 ENE 17 26 9 14 1024.6 1024.3 0.0
21/11:00pm 9.0 4.5 4.0 71 2.2 ENE 17 22 9 12 1025.1 1024.8 0.0
21/10:30pm 9.0 4.5 4.2 72 2.1 ENE 17 24 9 13 1025.2 1024.9 0.0
21/10:00pm 9.5 5.1 4.5 71 2.2 ENE 17 22 9 12 1025.7 1025.4 0.0

Other Formats:

Comma delimited format used in spreadsheet applications
http://www.bom.gov.au/fwo/IDW60801/IDW60801.95637.axf

JavaScript Object Notation format (JSON) in row-major order
http://www.bom.gov.au/fwo/IDW60801/IDW60801.95637.json